sensor_id;sensor_type;location;lat;lon;timestamp;P1;durP1;ratioP1;P2;durP2;ratioP2
40637;SDS011;26336;44.696;10.622;2023-11-19T00:03:03;11.10;;;6.70;;
40637;SDS011;26336;44.696;10.622;2023-11-19T00:06:07;17.13;;;6.50;;
40637;SDS011;26336;44.696;10.622;2023-11-19T00:09:13;9.67;;;5.50;;
40637;SDS011;26336;44.696;10.622;2023-11-19T00:12:19;8.93;;;5.57;;
40637;SDS011;26336;44.696;10.622;2023-11-19T00:15:23;8.70;;;5.17;;
40637;SDS011;26336;44.696;10.622;2023-11-19T00:18:27;10.20;;;6.40;;
40637;SDS011;26336;44.696;10.622;2023-11-19T00:21:31;10.20;;;5.90;;
40637;SDS011;26336;44.696;10.622;2023-11-19T00:24:36;9.83;;;6.07;;
40637;SDS011;26336;44.696;10.622;2023-11-19T00:27:40;10.37;;;6.93;;
40637;SDS011;26336;44.696;10.622;2023-11-19T00:30:44;10.50;;;6.97;;
40637;SDS011;26336;44.696;10.622;2023-11-19T00:33:50;9.13;;;6.83;;
40637;SDS011;26336;44.696;10.622;2023-11-19T00:36:54;13.83;;;9.43;;
40637;SDS011;26336;44.696;10.622;2023-11-19T00:39:59;12.50;;;8.00;;
40637;SDS011;26336;44.696;10.622;2023-11-19T00:43:03;10.97;;;7.23;;
40637;SDS011;26336;44.696;10.622;2023-11-19T00:46:07;11.90;;;7.70;;
40637;SDS011;26336;44.696;10.622;2023-11-19T00:49:11;8.77;;;6.73;;
40637;SDS011;26336;44.696;10.622;2023-11-19T00:52:16;15.50;;;7.67;;
40637;SDS011;26336;44.696;10.622;2023-11-19T00:55:20;11.53;;;7.47;;
40637;SDS011;26336;44.696;10.622;2023-11-19T00:58:24;15.33;;;8.83;;
40637;SDS011;26336;44.696;10.622;2023-11-19T01:01:28;11.00;;;7.87;;
40637;SDS011;26336;44.696;10.622;2023-11-19T01:04:35;11.73;;;7.33;;
40637;SDS011;26336;44.696;10.622;2023-11-19T01:07:39;9.77;;;6.60;;
40637;SDS011;26336;44.696;10.622;2023-11-19T01:10:43;10.93;;;6.73;;
40637;SDS011;26336;44.696;10.622;2023-11-19T01:13:47;9.47;;;6.83;;
40637;SDS011;26336;44.696;10.622;2023-11-19T01:16:52;9.03;;;5.87;;
40637;SDS011;26336;44.696;10.622;2023-11-19T01:19:57;7.87;;;5.53;;
40637;SDS011;26336;44.696;10.622;2023-11-19T01:23:01;7.90;;;5.00;;
40637;SDS011;26336;44.696;10.622;2023-11-19T01:26:06;8.33;;;5.10;;
40637;SDS011;26336;44.696;10.622;2023-11-19T01:29:16;6.70;;;5.03;;
40637;SDS011;26336;44.696;10.622;2023-11-19T01:32:20;7.13;;;5.33;;
40637;SDS011;26336;44.696;10.622;2023-11-19T01:35:24;6.50;;;4.80;;
40637;SDS011;26336;44.696;10.622;2023-11-19T01:38:28;7.07;;;5.47;;
40637;SDS011;26336;44.696;10.622;2023-11-19T01:41:35;6.73;;;4.97;;
40637;SDS011;26336;44.696;10.622;2023-11-19T01:44:40;7.00;;;4.97;;
40637;SDS011;26336;44.696;10.622;2023-11-19T01:47:44;7.33;;;5.07;;
40637;SDS011;26336;44.696;10.622;2023-11-19T01:50:48;8.03;;;5.40;;
40637;SDS011;26336;44.696;10.622;2023-11-19T01:53:53;6.20;;;4.30;;
40637;SDS011;26336;44.696;10.622;2023-11-19T01:56:59;7.60;;;4.83;;
40637;SDS011;26336;44.696;10.622;2023-11-19T02:00:07;8.17;;;5.27;;
40637;SDS011;26336;44.696;10.622;2023-11-19T02:03:16;6.93;;;4.60;;
40637;SDS011;26336;44.696;10.622;2023-11-19T02:06:20;6.80;;;5.13;;
40637;SDS011;26336;44.696;10.622;2023-11-19T02:09:25;6.23;;;4.83;;
40637;SDS011;26336;44.696;10.622;2023-11-19T02:12:30;5.63;;;4.57;;
40637;SDS011;26336;44.696;10.622;2023-11-19T02:15:37;8.90;;;4.97;;
40637;SDS011;26336;44.696;10.622;2023-11-19T02:18:40;7.53;;;4.90;;
40637;SDS011;26336;44.696;10.622;2023-11-19T02:21:44;5.87;;;4.43;;
40637;SDS011;26336;44.696;10.622;2023-11-19T02:24:49;4.63;;;4.03;;
40637;SDS011;26336;44.696;10.622;2023-11-19T02:28:00;7.10;;;4.33;;
40637;SDS011;26336;44.696;10.622;2023-11-19T02:31:06;8.20;;;5.37;;
40637;SDS011;26336;44.696;10.622;2023-11-19T02:34:13;6.47;;;4.97;;
40637;SDS011;26336;44.696;10.622;2023-11-19T02:37:17;7.30;;;4.77;;
40637;SDS011;26336;44.696;10.622;2023-11-19T02:40:22;5.53;;;4.40;;
40637;SDS011;26336;44.696;10.622;2023-11-19T02:43:29;6.30;;;4.63;;
40637;SDS011;26336;44.696;10.622;2023-11-19T02:46:34;7.67;;;5.20;;
40637;SDS011;26336;44.696;10.622;2023-11-19T02:49:38;5.37;;;4.70;;
40637;SDS011;26336;44.696;10.622;2023-11-19T02:52:43;6.27;;;4.23;;
40637;SDS011;26336;44.696;10.622;2023-11-19T02:55:49;7.37;;;4.67;;
40637;SDS011;26336;44.696;10.622;2023-11-19T02:58:53;5.97;;;4.77;;
40637;SDS011;26336;44.696;10.622;2023-11-19T03:01:57;6.20;;;4.67;;
40637;SDS011;26336;44.696;10.622;2023-11-19T03:05:03;6.27;;;4.40;;
40637;SDS011;26336;44.696;10.622;2023-11-19T03:08:07;5.70;;;4.30;;
40637;SDS011;26336;44.696;10.622;2023-11-19T03:11:11;7.07;;;4.10;;
40637;SDS011;26336;44.696;10.622;2023-11-19T03:14:15;5.97;;;4.73;;
40637;SDS011;26336;44.696;10.622;2023-11-19T03:17:20;5.57;;;4.20;;
40637;SDS011;26336;44.696;10.622;2023-11-19T03:20:24;4.93;;;4.17;;
40637;SDS011;26336;44.696;10.622;2023-11-19T03:23:31;7.70;;;4.70;;
40637;SDS011;26336;44.696;10.622;2023-11-19T03:26:35;5.87;;;4.50;;
40637;SDS011;26336;44.696;10.622;2023-11-19T03:29:40;6.27;;;4.33;;
40637;SDS011;26336;44.696;10.622;2023-11-19T03:32:44;5.83;;;4.17;;
40637;SDS011;26336;44.696;10.622;2023-11-19T03:35:48;7.00;;;4.47;;
40637;SDS011;26336;44.696;10.622;2023-11-19T03:38:54;5.37;;;4.20;;
40637;SDS011;26336;44.696;10.622;2023-11-19T03:41:58;6.73;;;3.73;;
40637;SDS011;26336;44.696;10.622;2023-11-19T03:45:03;5.90;;;3.97;;
40637;SDS011;26336;44.696;10.622;2023-11-19T03:48:07;6.33;;;4.00;;
40637;SDS011;26336;44.696;10.622;2023-11-19T03:51:11;7.23;;;4.50;;
40637;SDS011;26336;44.696;10.622;2023-11-19T03:54:18;7.17;;;4.73;;
40637;SDS011;26336;44.696;10.622;2023-11-19T03:57:25;5.73;;;4.03;;
40637;SDS011;26336;44.696;10.622;2023-11-19T04:00:29;4.90;;;3.80;;
40637;SDS011;26336;44.696;10.622;2023-11-19T04:03:33;6.13;;;3.97;;
40637;SDS011;26336;44.696;10.622;2023-11-19T04:06:37;5.00;;;3.73;;
40637;SDS011;26336;44.696;10.622;2023-11-19T04:09:41;5.93;;;4.13;;
40637;SDS011;26336;44.696;10.622;2023-11-19T04:12:45;4.80;;;4.07;;
40637;SDS011;26336;44.696;10.622;2023-11-19T04:15:50;6.63;;;3.90;;
40637;SDS011;26336;44.696;10.622;2023-11-19T04:18:55;6.20;;;3.97;;
40637;SDS011;26336;44.696;10.622;2023-11-19T04:22:00;5.93;;;3.67;;
40637;SDS011;26336;44.696;10.622;2023-11-19T04:25:05;4.87;;;3.67;;
40637;SDS011;26336;44.696;10.622;2023-11-19T04:28:09;4.13;;;3.10;;
40637;SDS011;26336;44.696;10.622;2023-11-19T04:31:14;4.77;;;3.63;;
40637;SDS011;26336;44.696;10.622;2023-11-19T04:34:19;5.03;;;3.60;;
40637;SDS011;26336;44.696;10.622;2023-11-19T04:37:23;4.57;;;3.40;;
40637;SDS011;26336;44.696;10.622;2023-11-19T04:40:27;5.73;;;3.37;;
40637;SDS011;26336;44.696;10.622;2023-11-19T04:43:31;3.93;;;3.50;;
40637;SDS011;26336;44.696;10.622;2023-11-19T04:46:35;4.83;;;3.07;;
40637;SDS011;26336;44.696;10.622;2023-11-19T04:49:42;4.27;;;3.47;;
40637;SDS011;26336;44.696;10.622;2023-11-19T04:52:46;4.07;;;3.20;;
40637;SDS011;26336;44.696;10.622;2023-11-19T04:55:50;5.03;;;3.67;;
40637;SDS011;26336;44.696;10.622;2023-11-19T04:58:54;3.60;;;2.70;;
40637;SDS011;26336;44.696;10.622;2023-11-19T05:01:58;4.90;;;3.10;;
40637;SDS011;26336;44.696;10.622;2023-11-19T05:05:02;4.63;;;3.07;;
40637;SDS011;26336;44.696;10.622;2023-11-19T05:08:09;4.60;;;2.93;;
40637;SDS011;26336;44.696;10.622;2023-11-19T05:11:14;4.37;;;3.23;;
40637;SDS011;26336;44.696;10.622;2023-11-19T05:14:22;3.37;;;2.60;;
40637;SDS011;26336;44.696;10.622;2023-11-19T05:17:28;3.60;;;2.37;;
40637;SDS011;26336;44.696;10.622;2023-11-19T05:20:32;7.20;;;3.27;;
40637;SDS011;26336;44.696;10.622;2023-11-19T05:23:35;4.23;;;2.60;;
40637;SDS011;26336;44.696;10.622;2023-11-19T05:26:39;3.63;;;2.30;;
40637;SDS011;26336;44.696;10.622;2023-11-19T05:29:44;6.20;;;2.43;;
40637;SDS011;26336;44.696;10.622;2023-11-19T05:32:48;3.60;;;2.53;;
40637;SDS011;26336;44.696;10.622;2023-11-19T05:35:51;3.73;;;2.63;;
40637;SDS011;26336;44.696;10.622;2023-11-19T05:38:55;4.53;;;2.90;;
40637;SDS011;26336;44.696;10.622;2023-11-19T05:41:59;4.57;;;2.70;;
40637;SDS011;26336;44.696;10.622;2023-11-19T05:45:03;3.40;;;2.23;;
40637;SDS011;26336;44.696;10.622;2023-11-19T05:48:08;4.37;;;2.70;;
40637;SDS011;26336;44.696;10.622;2023-11-19T05:51:12;4.50;;;3.07;;
40637;SDS011;26336;44.696;10.622;2023-11-19T05:54:18;3.67;;;2.97;;
40637;SDS011;26336;44.696;10.622;2023-11-19T05:57:22;4.13;;;3.13;;
40637;SDS011;26336;44.696;10.622;2023-11-19T06:00:28;4.47;;;2.97;;
40637;SDS011;26336;44.696;10.622;2023-11-19T06:03:33;4.03;;;3.10;;
40637;SDS011;26336;44.696;10.622;2023-11-19T06:06:38;4.07;;;2.83;;
40637;SDS011;26336;44.696;10.622;2023-11-19T06:09:42;4.40;;;3.47;;
40637;SDS011;26336;44.696;10.622;2023-11-19T06:12:46;5.30;;;3.27;;
40637;SDS011;26336;44.696;10.622;2023-11-19T06:15:51;4.90;;;2.90;;
40637;SDS011;26336;44.696;10.622;2023-11-19T06:18:55;4.33;;;3.03;;
40637;SDS011;26336;44.696;10.622;2023-11-19T06:21:59;4.17;;;3.50;;
40637;SDS011;26336;44.696;10.622;2023-11-19T06:25:03;5.40;;;3.97;;
40637;SDS011;26336;44.696;10.622;2023-11-19T06:28:10;4.43;;;3.70;;
40637;SDS011;26336;44.696;10.622;2023-11-19T06:31:14;7.63;;;3.80;;
40637;SDS011;26336;44.696;10.622;2023-11-19T06:34:19;5.93;;;3.53;;
40637;SDS011;26336;44.696;10.622;2023-11-19T06:37:23;4.67;;;3.73;;
40637;SDS011;26336;44.696;10.622;2023-11-19T06:40:26;4.23;;;3.27;;
40637;SDS011;26336;44.696;10.622;2023-11-19T06:43:30;5.33;;;3.20;;
40637;SDS011;26336;44.696;10.622;2023-11-19T06:46:37;5.67;;;3.80;;
40637;SDS011;26336;44.696;10.622;2023-11-19T06:49:43;6.67;;;4.77;;
40637;SDS011;26336;44.696;10.622;2023-11-19T06:52:48;6.23;;;4.50;;
40637;SDS011;26336;44.696;10.622;2023-11-19T06:55:52;8.00;;;4.37;;
40637;SDS011;26336;44.696;10.622;2023-11-19T06:58:56;6.17;;;4.57;;
40637;SDS011;26336;44.696;10.622;2023-11-19T07:01:59;5.70;;;4.10;;
40637;SDS011;26336;44.696;10.622;2023-11-19T07:05:03;4.53;;;3.43;;
40637;SDS011;26336;44.696;10.622;2023-11-19T07:08:08;4.97;;;3.10;;
40637;SDS011;26336;44.696;10.622;2023-11-19T07:11:12;3.77;;;2.87;;
40637;SDS011;26336;44.696;10.622;2023-11-19T07:14:18;4.37;;;3.33;;
40637;SDS011;26336;44.696;10.622;2023-11-19T07:17:22;4.90;;;3.07;;
40637;SDS011;26336;44.696;10.622;2023-11-19T07:20:30;5.80;;;3.40;;
40637;SDS011;26336;44.696;10.622;2023-11-19T07:23:39;4.87;;;3.50;;
40637;SDS011;26336;44.696;10.622;2023-11-19T07:26:43;6.17;;;3.50;;
40637;SDS011;26336;44.696;10.622;2023-11-19T07:29:49;4.27;;;3.03;;
40637;SDS011;26336;44.696;10.622;2023-11-19T07:32:53;5.17;;;3.17;;
40637;SDS011;26336;44.696;10.622;2023-11-19T07:35:59;7.13;;;3.23;;
40637;SDS011;26336;44.696;10.622;2023-11-19T07:39:03;6.27;;;3.63;;
40637;SDS011;26336;44.696;10.622;2023-11-19T07:42:07;4.30;;;2.97;;
40637;SDS011;26336;44.696;10.622;2023-11-19T07:45:12;5.00;;;3.17;;
40637;SDS011;26336;44.696;10.622;2023-11-19T07:48:17;5.10;;;2.27;;
40637;SDS011;26336;44.696;10.622;2023-11-19T07:51:25;4.23;;;2.60;;
40637;SDS011;26336;44.696;10.622;2023-11-19T07:54:32;3.23;;;2.33;;
40637;SDS011;26336;44.696;10.622;2023-11-19T07:57:37;2.73;;;2.30;;
40637;SDS011;26336;44.696;10.622;2023-11-19T08:00:48;2.83;;;2.23;;
40637;SDS011;26336;44.696;10.622;2023-11-19T08:03:58;3.37;;;2.60;;
40637;SDS011;26336;44.696;10.622;2023-11-19T08:07:02;5.50;;;3.10;;
40637;SDS011;26336;44.696;10.622;2023-11-19T08:10:14;6.53;;;3.10;;
40637;SDS011;26336;44.696;10.622;2023-11-19T08:13:18;3.83;;;2.47;;
40637;SDS011;26336;44.696;10.622;2023-11-19T08:16:23;4.73;;;2.63;;
40637;SDS011;26336;44.696;10.622;2023-11-19T08:19:27;4.87;;;2.60;;
40637;SDS011;26336;44.696;10.622;2023-11-19T08:22:31;3.70;;;2.47;;
40637;SDS011;26336;44.696;10.622;2023-11-19T08:25:36;3.10;;;1.90;;
40637;SDS011;26336;44.696;10.622;2023-11-19T08:28:40;4.57;;;2.20;;
40637;SDS011;26336;44.696;10.622;2023-11-19T08:31:44;3.90;;;2.60;;
40637;SDS011;26336;44.696;10.622;2023-11-19T08:34:49;3.30;;;2.70;;
40637;SDS011;26336;44.696;10.622;2023-11-19T08:37:53;3.50;;;2.93;;
40637;SDS011;26336;44.696;10.622;2023-11-19T08:40:57;4.07;;;2.80;;
40637;SDS011;26336;44.696;10.622;2023-11-19T08:44:04;4.30;;;2.90;;
40637;SDS011;26336;44.696;10.622;2023-11-19T08:47:08;3.13;;;2.83;;
40637;SDS011;26336;44.696;10.622;2023-11-19T08:50:13;3.90;;;3.13;;
40637;SDS011;26336;44.696;10.622;2023-11-19T08:53:17;4.33;;;3.27;;
40637;SDS011;26336;44.696;10.622;2023-11-19T08:56:21;6.70;;;2.93;;
40637;SDS011;26336;44.696;10.622;2023-11-19T08:59:28;4.63;;;3.47;;
40637;SDS011;26336;44.696;10.622;2023-11-19T09:02:36;5.50;;;3.30;;
40637;SDS011;26336;44.696;10.622;2023-11-19T09:05:40;5.27;;;3.63;;
40637;SDS011;26336;44.696;10.622;2023-11-19T09:08:44;4.20;;;3.10;;
40637;SDS011;26336;44.696;10.622;2023-11-19T09:11:48;4.27;;;2.97;;
40637;SDS011;26336;44.696;10.622;2023-11-19T09:14:52;7.10;;;3.43;;
40637;SDS011;26336;44.696;10.622;2023-11-19T09:17:56;4.23;;;3.47;;
40637;SDS011;26336;44.696;10.622;2023-11-19T09:21:00;5.40;;;3.60;;
40637;SDS011;26336;44.696;10.622;2023-11-19T09:24:05;4.77;;;4.10;;
40637;SDS011;26336;44.696;10.622;2023-11-19T09:27:11;5.67;;;3.97;;
40637;SDS011;26336;44.696;10.622;2023-11-19T09:30:15;5.70;;;4.00;;
40637;SDS011;26336;44.696;10.622;2023-11-19T09:33:21;6.17;;;4.77;;
40637;SDS011;26336;44.696;10.622;2023-11-19T09:36:25;6.67;;;5.47;;
40637;SDS011;26336;44.696;10.622;2023-11-19T09:39:31;8.37;;;5.93;;
40637;SDS011;26336;44.696;10.622;2023-11-19T09:42:43;8.63;;;5.90;;
40637;SDS011;26336;44.696;10.622;2023-11-19T09:45:53;8.13;;;5.87;;
40637;SDS011;26336;44.696;10.622;2023-11-19T09:48:59;8.67;;;7.27;;
40637;SDS011;26336;44.696;10.622;2023-11-19T09:52:05;7.60;;;6.40;;
40637;SDS011;26336;44.696;10.622;2023-11-19T09:55:09;9.33;;;7.23;;
40637;SDS011;26336;44.696;10.622;2023-11-19T09:58:13;8.73;;;7.03;;
40637;SDS011;26336;44.696;10.622;2023-11-19T10:01:18;9.37;;;6.93;;
40637;SDS011;26336;44.696;10.622;2023-11-19T10:04:22;12.20;;;7.40;;
40637;SDS011;26336;44.696;10.622;2023-11-19T10:07:28;9.70;;;7.00;;
40637;SDS011;26336;44.696;10.622;2023-11-19T10:10:32;12.47;;;8.13;;
40637;SDS011;26336;44.696;10.622;2023-11-19T10:13:37;11.53;;;7.87;;
40637;SDS011;26336;44.696;10.622;2023-11-19T10:16:45;11.63;;;7.40;;
40637;SDS011;26336;44.696;10.622;2023-11-19T10:19:50;8.77;;;7.37;;
40637;SDS011;26336;44.696;10.622;2023-11-19T10:22:54;10.70;;;7.50;;
40637;SDS011;26336;44.696;10.622;2023-11-19T10:26:05;11.40;;;7.93;;
40637;SDS011;26336;44.696;10.622;2023-11-19T10:29:12;13.40;;;8.23;;
40637;SDS011;26336;44.696;10.622;2023-11-19T10:32:18;11.57;;;8.47;;
40637;SDS011;26336;44.696;10.622;2023-11-19T10:35:22;15.13;;;8.93;;
40637;SDS011;26336;44.696;10.622;2023-11-19T10:38:26;13.07;;;8.40;;
40637;SDS011;26336;44.696;10.622;2023-11-19T10:41:30;10.80;;;8.53;;
40637;SDS011;26336;44.696;10.622;2023-11-19T10:44:36;12.00;;;8.17;;
40637;SDS011;26336;44.696;10.622;2023-11-19T10:47:41;10.40;;;7.83;;
40637;SDS011;26336;44.696;10.622;2023-11-19T10:50:46;11.77;;;7.97;;
40637;SDS011;26336;44.696;10.622;2023-11-19T10:53:53;9.77;;;7.80;;
40637;SDS011;26336;44.696;10.622;2023-11-19T10:57:04;10.40;;;7.83;;
40637;SDS011;26336;44.696;10.622;2023-11-19T11:00:12;10.30;;;7.20;;
40637;SDS011;26336;44.696;10.622;2023-11-19T11:03:18;12.83;;;7.93;;
40637;SDS011;26336;44.696;10.622;2023-11-19T11:06:24;13.83;;;9.27;;
40637;SDS011;26336;44.696;10.622;2023-11-19T11:09:33;12.90;;;9.17;;
40637;SDS011;26336;44.696;10.622;2023-11-19T11:12:38;11.52;;;8.02;;
40637;SDS011;26336;44.696;10.622;2023-11-19T11:15:45;11.10;;;7.90;;
40637;SDS011;26336;44.696;10.622;2023-11-19T11:18:50;10.43;;;7.68;;
40637;SDS011;26336;44.696;10.622;2023-11-19T11:21:55;9.88;;;7.00;;
40637;SDS011;26336;44.696;10.622;2023-11-19T11:28:39;11.05;;;8.10;;
40637;SDS011;26336;44.696;10.622;2023-11-19T11:35:30;12.23;;;7.88;;
40637;SDS011;26336;44.696;10.622;2023-11-19T11:38:49;10.23;;;8.18;;
40637;SDS011;26336;44.696;10.622;2023-11-19T11:45:40;12.45;;;7.90;;
40637;SDS011;26336;44.696;10.622;2023-11-19T11:48:46;11.15;;;7.82;;
40637;SDS011;26336;44.696;10.622;2023-11-19T11:55:06;12.50;;;7.95;;
40637;SDS011;26336;44.696;10.622;2023-11-19T11:58:12;15.20;;;8.03;;
40637;SDS011;26336;44.696;10.622;2023-11-19T12:01:17;11.10;;;7.57;;
40637;SDS011;26336;44.696;10.622;2023-11-19T12:04:26;11.02;;;6.88;;
40637;SDS011;26336;44.696;10.622;2023-11-19T12:07:33;10.85;;;8.20;;
40637;SDS011;26336;44.696;10.622;2023-11-19T12:17:29;10.93;;;7.30;;
40637;SDS011;26336;44.696;10.622;2023-11-19T12:20:37;12.18;;;7.85;;
40637;SDS011;26336;44.696;10.622;2023-11-19T12:23:46;8.38;;;6.38;;
40637;SDS011;26336;44.696;10.622;2023-11-19T12:26:51;9.38;;;6.13;;
40637;SDS011;26336;44.696;10.622;2023-11-19T12:29:58;8.18;;;6.03;;
40637;SDS011;26336;44.696;10.622;2023-11-19T12:33:07;10.15;;;7.35;;
40637;SDS011;26336;44.696;10.622;2023-11-19T12:39:18;10.00;;;7.60;;
40637;SDS011;26336;44.696;10.622;2023-11-19T12:42:34;11.07;;;7.10;;
40637;SDS011;26336;44.696;10.622;2023-11-19T12:45:40;10.18;;;7.25;;
40637;SDS011;26336;44.696;10.622;2023-11-19T12:48:44;9.05;;;5.90;;
40637;SDS011;26336;44.696;10.622;2023-11-19T12:51:48;8.93;;;6.15;;
40637;SDS011;26336;44.696;10.622;2023-11-19T12:54:52;7.05;;;5.75;;
40637;SDS011;26336;44.696;10.622;2023-11-19T12:57:56;10.75;;;5.70;;
40637;SDS011;26336;44.696;10.622;2023-11-19T13:01:07;10.20;;;6.47;;
40637;SDS011;26336;44.696;10.622;2023-11-19T13:04:16;7.88;;;6.47;;
40637;SDS011;26336;44.696;10.622;2023-11-19T13:07:23;10.05;;;5.57;;
40637;SDS011;26336;44.696;10.622;2023-11-19T13:10:27;12.80;;;6.05;;
40637;SDS011;26336;44.696;10.622;2023-11-19T13:13:31;10.75;;;5.05;;
40637;SDS011;26336;44.696;10.622;2023-11-19T13:16:36;8.25;;;5.50;;
40637;SDS011;26336;44.696;10.622;2023-11-19T13:19:41;8.00;;;5.88;;
40637;SDS011;26336;44.696;10.622;2023-11-19T13:22:58;10.32;;;6.95;;
40637;SDS011;26336;44.696;10.622;2023-11-19T13:26:09;10.77;;;5.40;;
40637;SDS011;26336;44.696;10.622;2023-11-19T13:29:14;6.28;;;4.57;;
40637;SDS011;26336;44.696;10.622;2023-11-19T13:32:20;8.38;;;5.07;;
40637;SDS011;26336;44.696;10.622;2023-11-19T13:35:24;7.25;;;4.75;;
40637;SDS011;26336;44.696;10.622;2023-11-19T13:38:34;7.97;;;4.82;;
40637;SDS011;26336;44.696;10.622;2023-11-19T13:41:39;7.00;;;4.60;;
40637;SDS011;26336;44.696;10.622;2023-11-19T13:44:44;6.90;;;4.18;;
40637;SDS011;26336;44.696;10.622;2023-11-19T13:47:48;6.13;;;4.20;;
40637;SDS011;26336;44.696;10.622;2023-11-19T13:50:52;5.28;;;4.10;;
40637;SDS011;26336;44.696;10.622;2023-11-19T13:53:56;7.65;;;5.05;;
40637;SDS011;26336;44.696;10.622;2023-11-19T13:56:59;7.18;;;5.00;;
40637;SDS011;26336;44.696;10.622;2023-11-19T14:00:05;9.30;;;5.88;;
40637;SDS011;26336;44.696;10.622;2023-11-19T14:03:19;8.48;;;4.97;;
40637;SDS011;26336;44.696;10.622;2023-11-19T14:06:24;6.68;;;4.65;;
40637;SDS011;26336;44.696;10.622;2023-11-19T14:09:31;8.32;;;5.60;;
40637;SDS011;26336;44.696;10.622;2023-11-19T14:12:35;8.35;;;5.20;;
40637;SDS011;26336;44.696;10.622;2023-11-19T14:15:41;9.15;;;4.70;;
40637;SDS011;26336;44.696;10.622;2023-11-19T14:18:46;7.20;;;4.68;;
40637;SDS011;26336;44.696;10.622;2023-11-19T14:21:52;8.68;;;4.60;;
40637;SDS011;26336;44.696;10.622;2023-11-19T14:24:55;6.45;;;4.85;;
40637;SDS011;26336;44.696;10.622;2023-11-19T14:27:59;7.75;;;5.00;;
40637;SDS011;26336;44.696;10.622;2023-11-19T14:31:04;5.95;;;4.47;;
40637;SDS011;26336;44.696;10.622;2023-11-19T14:34:08;6.20;;;4.82;;
40637;SDS011;26336;44.696;10.622;2023-11-19T14:37:12;8.23;;;5.35;;
40637;SDS011;26336;44.696;10.622;2023-11-19T14:40:16;7.53;;;6.15;;
40637;SDS011;26336;44.696;10.622;2023-11-19T14:43:20;9.48;;;5.60;;
40637;SDS011;26336;44.696;10.622;2023-11-19T14:46:24;8.18;;;6.07;;
40637;SDS011;26336;44.696;10.622;2023-11-19T14:49:28;8.77;;;6.40;;
40637;SDS011;26336;44.696;10.622;2023-11-19T14:52:32;12.90;;;6.57;;
40637;SDS011;26336;44.696;10.622;2023-11-19T14:55:37;9.07;;;5.57;;
40637;SDS011;26336;44.696;10.622;2023-11-19T14:58:41;6.57;;;5.55;;
40637;SDS011;26336;44.696;10.622;2023-11-19T15:01:47;10.20;;;6.20;;
40637;SDS011;26336;44.696;10.622;2023-11-19T15:04:51;8.70;;;6.25;;
40637;SDS011;26336;44.696;10.622;2023-11-19T15:07:56;10.52;;;6.25;;
40637;SDS011;26336;44.696;10.622;2023-11-19T15:11:00;7.80;;;6.40;;
40637;SDS011;26336;44.696;10.622;2023-11-19T15:14:05;8.63;;;6.57;;
40637;SDS011;26336;44.696;10.622;2023-11-19T15:17:10;8.80;;;6.28;;
40637;SDS011;26336;44.696;10.622;2023-11-19T15:20:14;8.82;;;6.13;;
40637;SDS011;26336;44.696;10.622;2023-11-19T15:23:21;6.75;;;5.50;;
40637;SDS011;26336;44.696;10.622;2023-11-19T15:26:25;8.88;;;6.07;;
40637;SDS011;26336;44.696;10.622;2023-11-19T15:29:29;7.63;;;6.22;;
40637;SDS011;26336;44.696;10.622;2023-11-19T15:32:34;10.50;;;6.20;;
40637;SDS011;26336;44.696;10.622;2023-11-19T15:35:39;9.65;;;6.40;;
40637;SDS011;26336;44.696;10.622;2023-11-19T15:38:44;9.90;;;6.57;;
40637;SDS011;26336;44.696;10.622;2023-11-19T15:41:48;10.52;;;6.55;;
40637;SDS011;26336;44.696;10.622;2023-11-19T15:44:52;9.23;;;7.07;;
40637;SDS011;26336;44.696;10.622;2023-11-19T15:47:56;8.95;;;6.53;;
40637;SDS011;26336;44.696;10.622;2023-11-19T15:51:00;8.90;;;6.45;;
40637;SDS011;26336;44.696;10.622;2023-11-19T15:54:06;13.18;;;7.25;;
40637;SDS011;26336;44.696;10.622;2023-11-19T15:57:10;10.07;;;7.97;;
40637;SDS011;26336;44.696;10.622;2023-11-19T16:00:14;10.55;;;7.35;;
40637;SDS011;26336;44.696;10.622;2023-11-19T16:03:20;13.70;;;7.50;;
40637;SDS011;26336;44.696;10.622;2023-11-19T16:06:23;12.75;;;7.55;;
40637;SDS011;26336;44.696;10.622;2023-11-19T16:09:27;11.25;;;7.65;;
40637;SDS011;26336;44.696;10.622;2023-11-19T16:12:31;11.13;;;7.80;;
40637;SDS011;26336;44.696;10.622;2023-11-19T16:15:35;10.30;;;7.40;;
40637;SDS011;26336;44.696;10.622;2023-11-19T16:18:40;14.07;;;7.97;;
40637;SDS011;26336;44.696;10.622;2023-11-19T16:21:45;11.88;;;8.18;;
40637;SDS011;26336;44.696;10.622;2023-11-19T16:24:49;10.05;;;7.65;;
40637;SDS011;26336;44.696;10.622;2023-11-19T16:27:53;16.85;;;10.30;;
40637;SDS011;26336;44.696;10.622;2023-11-19T16:30:56;18.48;;;10.73;;
40637;SDS011;26336;44.696;10.622;2023-11-19T16:34:00;17.05;;;10.13;;
40637;SDS011;26336;44.696;10.622;2023-11-19T16:37:05;13.57;;;9.57;;
40637;SDS011;26336;44.696;10.622;2023-11-19T16:40:11;18.70;;;10.35;;
40637;SDS011;26336;44.696;10.622;2023-11-19T16:43:19;16.20;;;11.18;;
40637;SDS011;26336;44.696;10.622;2023-11-19T16:46:23;17.05;;;11.50;;
40637;SDS011;26336;44.696;10.622;2023-11-19T16:49:31;16.65;;;10.55;;
40637;SDS011;26336;44.696;10.622;2023-11-19T16:52:35;19.13;;;10.90;;
40637;SDS011;26336;44.696;10.622;2023-11-19T16:55:39;16.73;;;10.73;;
40637;SDS011;26336;44.696;10.622;2023-11-19T16:58:43;15.50;;;9.68;;
40637;SDS011;26336;44.696;10.622;2023-11-19T17:01:48;15.57;;;9.93;;
40637;SDS011;26336;44.696;10.622;2023-11-19T17:04:52;15.82;;;11.50;;
40637;SDS011;26336;44.696;10.622;2023-11-19T17:07:56;17.45;;;10.85;;
40637;SDS011;26336;44.696;10.622;2023-11-19T17:11:00;15.52;;;10.40;;
40637;SDS011;26336;44.696;10.622;2023-11-19T17:14:06;19.38;;;11.10;;
40637;SDS011;26336;44.696;10.622;2023-11-19T17:17:10;19.95;;;11.98;;
40637;SDS011;26336;44.696;10.622;2023-11-19T17:20:14;20.00;;;12.00;;
40637;SDS011;26336;44.696;10.622;2023-11-19T17:23:18;18.17;;;13.07;;
40637;SDS011;26336;44.696;10.622;2023-11-19T17:26:22;16.38;;;12.35;;
40637;SDS011;26336;44.696;10.622;2023-11-19T17:29:26;18.98;;;12.55;;
40637;SDS011;26336;44.696;10.622;2023-11-19T17:32:30;19.88;;;13.27;;
40637;SDS011;26336;44.696;10.622;2023-11-19T17:35:37;23.50;;;13.65;;
40637;SDS011;26336;44.696;10.622;2023-11-19T17:38:41;19.10;;;14.00;;
40637;SDS011;26336;44.696;10.622;2023-11-19T17:41:45;22.98;;;13.63;;
40637;SDS011;26336;44.696;10.622;2023-11-19T17:44:49;21.42;;;14.30;;
40637;SDS011;26336;44.696;10.622;2023-11-19T17:47:53;23.27;;;14.30;;
40637;SDS011;26336;44.696;10.622;2023-11-19T17:50:58;19.23;;;13.77;;
40637;SDS011;26336;44.696;10.622;2023-11-19T17:54:02;20.15;;;13.93;;
40637;SDS011;26336;44.696;10.622;2023-11-19T17:57:07;20.02;;;13.60;;
40637;SDS011;26336;44.696;10.622;2023-11-19T18:00:11;20.58;;;13.50;;
40637;SDS011;26336;44.696;10.622;2023-11-19T18:03:19;22.40;;;14.18;;
40637;SDS011;26336;44.696;10.622;2023-11-19T18:06:23;21.48;;;15.25;;
40637;SDS011;26336;44.696;10.622;2023-11-19T18:09:27;24.52;;;15.13;;
40637;SDS011;26336;44.696;10.622;2023-11-19T18:12:31;21.03;;;14.40;;
40637;SDS011;26336;44.696;10.622;2023-11-19T18:15:35;19.02;;;13.98;;
40637;SDS011;26336;44.696;10.622;2023-11-19T18:18:40;18.37;;;13.20;;
40637;SDS011;26336;44.696;10.622;2023-11-19T18:21:44;19.77;;;13.23;;
40637;SDS011;26336;44.696;10.622;2023-11-19T18:24:51;19.37;;;12.83;;
40637;SDS011;26336;44.696;10.622;2023-11-19T18:27:55;20.92;;;12.15;;
40637;SDS011;26336;44.696;10.622;2023-11-19T18:30:59;18.07;;;12.73;;
40637;SDS011;26336;44.696;10.622;2023-11-19T18:34:03;17.08;;;12.38;;
40637;SDS011;26336;44.696;10.622;2023-11-19T18:37:08;18.87;;;13.27;;